Time;durP1;ratioP1;P1;durP2;ratioP2;P2;SDS_P1;SDS_P2;PMS_P1;PMS_P2;Temp;Humidity;BMP_temperature;BMP_pressure;BME280_temperature;BME280_humidity;BME280_pressure;Samples;Min_cycle;Max_cycle;Signal;HPM_P1;HPM_P2
2021/10/14 00:00:39;;;;;;;21.12;12.03;;;;;;;6.40;80.70;99370.20;1601433;87;21094;-77
2021/10/14 00:03:06;;;;;;;26.42;11.97;;;;;;;6.39;80.73;99367.22;1626281;87;21038;-75
2021/10/14 00:05:35;;;;;;;21.25;11.97;;;;;;;6.39;80.73;99365.31;1596013;87;21006;-76
2021/10/14 00:08:08;;;;;;;22.05;12.50;;;;;;;6.39;80.66;99378.17;1635515;86;21888;-77
2021/10/14 00:10:39;;;;;;;21.95;11.57;;;;;;;6.39;80.57;99380.91;1637671;85;20987;-76
2021/10/14 00:13:06;;;;;;;24.00;11.48;;;;;;;6.38;80.67;99382.03;1626675;87;21065;-74
2021/10/14 00:15:48;;;;;;;22.42;12.45;;;;;;;6.39;80.69;99384.47;1568387;89;21076;-75
2021/10/14 00:18:15;;;;;;;20.57;11.88;;;;;;;6.39;80.61;99391.31;1626553;87;21110;-75
2021/10/14 00:20:43;;;;;;;23.62;11.85;;;;;;;6.38;80.68;99388.30;1610512;88;22045;-75
2021/10/14 00:23:17;;;;;;;18.95;11.38;;;;;;;6.36;80.62;99385.06;1609469;88;21095;-76
2021/10/14 00:25:54;;;;;;;14.70;10.08;;;;;;;6.32;80.70;99385.38;1602140;87;20975;-75
2021/10/14 00:28:25;;;;;;;20.37;11.80;;;;;;;6.28;80.78;99383.78;1609866;88;21512;-76
2021/10/14 00:30:51;;;;;;;26.97;11.08;;;;;;;6.28;80.73;99391.17;1611585;88;21032;-74
2021/10/14 00:33:19;;;;;;;21.37;11.22;;;;;;;6.28;80.78;99385.15;1591041;88;21578;-78
2021/10/14 00:35:50;;;;;;;21.33;12.10;;;;;;;6.28;80.91;99393.36;1620353;87;21099;-75
2021/10/14 00:38:19;;;;;;;22.82;10.80;;;;;;;6.27;80.96;99400.50;1610019;88;21123;-75
2021/10/14 00:40:48;;;;;;;17.73;11.18;;;;;;;6.27;80.95;99400.50;1589062;88;21031;-75
2021/10/14 00:43:19;;;;;;;17.50;11.43;;;;;;;6.26;80.89;99401.05;1596060;88;21103;-74
2021/10/14 00:45:47;;;;;;;24.45;12.37;;;;;;;6.25;80.89;99402.16;1582162;88;21059;-76
2021/10/14 00:48:15;;;;;;;19.90;10.60;;;;;;;6.21;80.95;99402.48;1599671;87;21078;-76
2021/10/14 00:50:47;;;;;;;21.27;11.68;;;;;;;6.19;81.07;99404.72;1603468;88;21058;-76
2021/10/14 00:53:18;;;;;;;21.35;10.98;;;;;;;6.18;81.14;99402.52;1604942;88;21087;-76
2021/10/14 00:55:50;;;;;;;20.80;12.53;;;;;;;6.18;81.17;99409.36;1605750;88;21523;-75
2021/10/14 00:58:16;;;;;;;21.70;10.90;;;;;;;6.18;81.18;99412.64;1604710;88;21556;-76
2021/10/14 01:01:04;;;;;;;20.25;11.83;;;;;;;6.19;81.27;99403.34;1572593;88;21071;-74
2021/10/14 01:03:44;;;;;;;17.30;10.80;;;;;;;6.18;81.22;99406.63;1605458;88;21039;-76
2021/10/14 01:06:15;;;;;;;19.92;10.90;;;;;;;6.20;81.20;99410.44;1605223;88;21044;-75
2021/10/14 01:08:43;;;;;;;21.95;10.70;;;;;;;6.18;81.18;99409.36;1603580;88;21089;-75
2021/10/14 01:11:11;;;;;;;15.50;10.25;;;;;;;6.15;81.12;99409.13;1606193;88;21196;-75
2021/10/14 01:13:40;;;;;;;17.85;10.85;;;;;;;6.14;81.14;99415.72;1605870;88;21074;-75
2021/10/14 01:16:08;;;;;;;18.30;10.23;;;;;;;6.15;81.05;99418.16;1604558;88;21075;-77
2021/10/14 01:18:35;;;;;;;18.52;9.95;;;;;;;6.11;80.96;99415.73;1606560;88;21056;-76
2021/10/14 01:21:01;;;;;;;18.10;11.22;;;;;;;6.07;81.00;99425.08;1607149;87;21130;-75
2021/10/14 01:23:34;;;;;;;19.48;11.50;;;;;;;6.05;81.01;99425.12;1605386;88;21141;-76
2021/10/14 01:26:02;;;;;;;18.12;10.88;;;;;;;5.99;81.07;99429.00;1602544;88;21551;-76
2021/10/14 01:28:30;;;;;;;21.02;10.28;;;;;;;5.95;81.11;99436.40;1602644;88;21043;-77
2021/10/14 01:31:01;;;;;;;16.60;9.65;;;;;;;5.93;81.19;99441.38;1583626;88;21481;-74
2021/10/14 01:33:30;;;;;;;16.75;9.68;;;;;;;5.97;81.18;99442.41;1602684;88;21111;-76
2021/10/14 01:36:01;;;;;;;19.92;10.38;;;;;;;5.99;81.19;99446.78;1601021;88;21817;-77
2021/10/14 01:38:30;;;;;;;15.28;9.35;;;;;;;5.97;81.17;99444.34;1600896;88;21512;-76
2021/10/14 01:40:57;;;;;;;14.50;9.48;;;;;;;5.98;81.04;99452.80;1585741;88;21055;-75
2021/10/14 01:43:23;;;;;;;19.35;10.13;;;;;;;5.97;81.04;99455.28;1586405;89;21600;-77
2021/10/14 01:45:58;;;;;;;13.90;8.95;;;;;;;5.97;80.98;99456.66;1604449;88;21019;-78
2021/10/14 01:48:34;;;;;;;16.10;10.18;;;;;;;5.95;80.98;99464.33;1583223;89;21099;-76
2021/10/14 01:51:04;;;;;;;17.65;9.55;;;;;;;5.91;80.94;99467.37;1579771;89;21047;-77
2021/10/14 01:53:32;;;;;;;14.83;8.43;;;;;;;5.85;80.96;99460.58;1602467;88;21332;-77
2021/10/14 01:56:03;;;;;;;15.10;8.93;;;;;;;5.81;81.03;99460.09;1640946;85;21072;-76
2021/10/14 01:58:49;;;;;;;18.70;8.25;;;;;;;5.79;81.05;99462.30;1606657;86;21039;-77
2021/10/14 02:01:29;;;;;;;16.35;9.13;;;;;;;5.78;81.01;99468.33;1642278;86;21055;-77
2021/10/14 02:04:02;;;;;;;20.30;9.70;;;;;;;5.73;80.97;99481.48;1642986;86;21626;-77
2021/10/14 02:06:30;;;;;;;12.98;8.53;;;;;;;5.67;81.02;99480.45;1642091;86;21075;-76
2021/10/14 02:08:57;;;;;;;18.20;9.18;;;;;;;5.63;81.17;99484.88;1641443;86;21055;-75
2021/10/14 02:11:25;;;;;;;15.72;9.25;;;;;;;5.59;81.18;99490.93;1626859;86;21087;-76
2021/10/14 02:13:56;;;;;;;13.48;8.28;;;;;;;5.56;81.19;99486.02;1643790;86;21223;-76
2021/10/14 02:16:25;;;;;;;13.75;9.53;;;;;;;5.55;81.22;99492.59;1641903;85;21047;-75
2021/10/14 02:18:58;;;;;;;13.90;8.85;;;;;;;5.51;81.22;99488.79;1623496;86;21305;-76
2021/10/14 02:21:24;;;;;;;16.70;10.43;;;;;;;5.50;81.24;99489.91;1633082;86;21063;-76
2021/10/14 02:23:55;;;;;;;12.63;8.78;;;;;;;5.46;81.26;99493.76;1627392;86;21544;-76
2021/10/14 02:26:29;;;;;;;18.30;10.60;;;;;;;5.44;81.33;99493.22;1644884;86;21572;-76
2021/10/14 02:29:12;;;;;;;16.77;9.68;;;;;;;5.39;81.35;99499.30;1642579;86;21126;-76
2021/10/14 02:31:45;;;;;;;14.68;9.10;;;;;;;5.35;81.43;99508.07;1641331;86;21036;-76
2021/10/14 02:34:19;;;;;;;19.05;10.25;;;;;;;5.34;81.53;99515.19;1645417;86;21071;-75
2021/10/14 02:36:45;;;;;;;20.10;11.93;;;;;;;5.32;81.54;99509.98;1646312;86;21027;-77
2021/10/14 02:39:15;;;;;;;19.80;10.70;;;;;;;5.29;81.66;99517.39;1640389;86;21299;-76
2021/10/14 02:41:44;;;;;;;18.02;10.00;;;;;;;5.33;81.87;99528.03;1640750;86;21071;-76
2021/10/14 02:44:15;;;;;;;18.17;10.85;;;;;;;5.39;81.93;99529.36;1613156;87;21670;-77
2021/10/14 02:46:49;;;;;;;17.32;10.68;;;;;;;5.42;81.75;99528.78;1630826;87;21092;-77
2021/10/14 02:49:15;;;;;;;19.30;10.45;;;;;;;5.40;81.45;99532.34;1628103;87;21077;-78
2021/10/14 02:51:49;;;;;;;18.30;10.20;;;;;;;5.31;81.27;99528.86;1633644;87;21052;-76
2021/10/14 02:54:27;;;;;;;18.05;10.40;;;;;;;5.20;81.20;99530.03;1628762;87;21529;-77
2021/10/14 02:57:05;;;;;;;13.98;9.70;;;;;;;5.07;81.30;99530.92;1631337;87;21016;-77
2021/10/14 02:59:31;;;;;;;18.57;9.53;;;;;;;5.01;81.34;99532.06;1622719;87;21035;-78
2021/10/14 03:02:01;;;;;;;17.25;9.63;;;;;;;4.89;81.44;99539.77;1633793;87;21044;-76
2021/10/14 03:04:31;;;;;;;16.02;9.53;;;;;;;4.82;81.63;99543.64;1634196;87;21201;-78
2021/10/14 03:06:58;;;;;;;20.35;9.98;;;;;;;4.78;81.63;99540.39;1636182;86;21059;-77
2021/10/14 03:09:26;;;;;;;13.15;9.30;;;;;;;4.72;81.69;99543.69;1616447;88;21115;-77
2021/10/14 03:12:06;;;;;;;16.62;10.85;;;;;;;4.66;81.82;99542.09;1637198;86;21031;-78
2021/10/14 03:14:44;;;;;;;15.40;9.58;;;;;;;4.64;81.92;99543.70;1634320;86;21088;-77
2021/10/14 03:17:22;;;;;;;13.72;9.93;;;;;;;4.60;82.05;99544.84;1635091;86;21032;-77
2021/10/14 03:19:49;;;;;;;17.55;10.70;;;;;;;4.56;82.09;99545.65;1642363;86;21540;-78
2021/10/14 03:22:15;;;;;;;25.75;11.03;;;;;;;4.53;82.07;99548.94;1642926;86;21119;-78
2021/10/14 03:24:47;;;;;;;14.80;9.63;;;;;;;4.49;82.11;99548.68;1616479;86;21135;-76
2021/10/14 03:27:26;;;;;;;16.15;9.20;;;;;;;4.47;82.22;99554.98;1635085;86;21027;-77
2021/10/14 03:30:08;;;;;;;14.70;10.10;;;;;;;4.46;82.29;99545.97;1636716;85;21068;-78
2021/10/14 03:32:36;;;;;;;17.12;10.70;;;;;;;4.45;82.16;99553.88;1629706;86;21049;-77
2021/10/14 03:35:07;;;;;;;22.95;12.47;;;;;;;4.38;82.20;99551.44;1633523;87;21061;-78
2021/10/14 03:37:38;;;;;;;23.62;13.78;;;;;;;4.41;82.46;99559.63;1615428;87;21595;-77
2021/10/14 03:40:11;;;;;;;22.00;12.33;;;;;;;4.46;82.50;99562.34;1633372;87;21040;-78
2021/10/14 03:42:39;;;;;;;19.37;11.75;;;;;;;4.52;82.37;99559.59;1615458;87;21543;-79
2021/10/14 03:45:12;;;;;;;20.80;11.35;;;;;;;4.54;82.16;99562.30;1615756;87;21480;-76
2021/10/14 03:47:42;;;;;;;21.55;11.80;;;;;;;4.51;81.85;99562.87;1614176;88;21028;-77
2021/10/14 03:50:12;;;;;;;23.40;12.37;;;;;;;4.46;81.78;99562.34;1608079;86;21015;-75
2021/10/14 03:52:44;;;;;;;23.07;12.33;;;;;;;4.47;81.88;99569.42;1608087;88;21106;-77
2021/10/14 03:55:13;;;;;;;22.87;13.38;;;;;;;4.49;81.89;99567.78;1621088;88;21016;-76
2021/10/14 03:57:41;;;;;;;23.00;13.08;;;;;;;4.51;81.83;99579.24;1590198;88;21529;-77
2021/10/14 04:00:12;;;;;;;19.67;13.70;;;;;;;4.56;81.82;99579.77;1610683;88;21063;-77
2021/10/14 04:02:42;;;;;;;;;;;;;;;4.59;81.59;99588.22;1613000;88;21015;-75
2021/10/14 04:05:13;;;;;;;19.48;12.15;;;;;;;4.59;81.38;99585.48;1608588;88;20153;-75
2021/10/14 04:07:44;;;;;;;18.98;11.88;;;;;;;4.57;81.08;99584.94;1608235;88;21085;-77
2021/10/14 04:10:15;;;;;;;21.57;13.48;;;;;;;4.53;80.90;99585.25;1612422;88;21007;-75
2021/10/14 04:12:45;;;;;;;22.67;13.58;;;;;;;4.50;80.75;99592.06;1616705;88;21077;-76
2021/10/14 04:15:24;;;;;;;25.37;14.95;;;;;;;4.47;80.65;99590.46;1588674;88;21019;-75
2021/10/14 04:17:51;;;;;;;17.65;10.65;;;;;;;4.42;80.55;99594.00;1608334;88;21026;-75
2021/10/14 04:20:21;;;;;;;21.40;13.48;;;;;;;4.40;80.54;99598.94;1588987;88;21058;-77
2021/10/14 04:23:02;;;;;;;23.90;13.48;;;;;;;4.34;80.45;99606.30;1622769;87;21027;-77
2021/10/14 04:25:30;;;;;;;23.15;13.55;;;;;;;4.31;80.52;99604.67;1609037;88;21043;-74
2021/10/14 04:28:09;;;;;;;20.85;13.68;;;;;;;4.30;80.48;99607.14;1599600;88;21063;-77
2021/10/14 04:30:58;;;;;;;26.30;14.25;;;;;;;4.28;80.30;99613.41;1605780;88;21080;-77
2021/10/14 04:33:30;;;;;;;24.50;14.35;;;;;;;4.23;80.00;99621.06;1591953;88;22063;-77
2021/10/14 04:36:05;;;;;;;23.22;14.58;;;;;;;4.14;79.96;99621.59;1589573;88;21024;-77
2021/10/14 04:38:36;;;;;;;21.80;14.83;;;;;;;4.09;80.09;99621.63;1609965;88;21055;-77
2021/10/14 04:41:11;;;;;;;27.62;15.35;;;;;;;4.06;80.12;99623.52;1619116;88;21042;-77
2021/10/14 04:43:41;;;;;;;;;;;;;;;4.05;80.26;99630.07;1620554;87;21036;-77
2021/10/14 04:46:07;;;;;;;33.13;16.62;;;;;;;4.06;80.39;99628.97;1616853;87;21894;-77
2021/10/14 04:48:36;;;;;;;24.90;15.98;;;;;;;4.09;80.62;99637.98;1620560;87;21156;-76
2021/10/14 04:51:05;;;;;;;21.70;13.85;;;;;;;4.11;80.80;99639.88;1610106;88;21087;-76
2021/10/14 04:53:34;;;;;;;27.65;15.70;;;;;;;4.17;80.92;99654.88;1608391;88;20972;-77
2021/10/14 04:56:04;;;;;;;29.80;17.23;;;;;;;4.21;81.04;99654.61;1611000;88;21020;-76
2021/10/14 04:58:32;;;;;;;25.60;17.45;;;;;;;4.23;81.16;99651.07;1610238;88;21131;-77
2021/10/14 05:01:02;;;;;;;28.32;16.77;;;;;;;4.25;81.23;99652.95;1610027;88;21468;-76
2021/10/14 05:03:31;;;;;;;31.60;17.95;;;;;;;4.23;81.22;99657.33;1594395;88;21047;-77
2021/10/14 05:06:00;;;;;;;26.55;17.20;;;;;;;4.24;81.54;99659.52;1608595;88;21008;-77
2021/10/14 05:08:30;;;;;;;34.75;16.57;;;;;;;4.27;81.60;99665.78;1593650;88;21031;-76
2021/10/14 05:11:00;;;;;;;31.33;17.75;;;;;;;4.29;81.80;99670.42;1619529;86;21957;-76
2021/10/14 05:13:29;;;;;;;31.07;18.07;;;;;;;4.31;81.88;99675.06;1610578;88;21032;-78
2021/10/14 05:16:03;;;;;;;;;;;;;;;4.31;81.94;99679.70;1612489;88;21023;-76
2021/10/14 05:18:33;;;;;;;29.95;16.70;;;;;;;4.34;82.22;99680.51;1591707;88;20171;-77
2021/10/14 05:21:04;;;;;;;29.23;18.00;;;;;;;4.38;82.29;99693.89;1606794;87;20992;-76
2021/10/14 05:23:42;;;;;;;26.45;16.77;;;;;;;4.41;82.46;99685.69;1609582;88;21083;-77
2021/10/14 05:26:09;;;;;;;26.55;16.17;;;;;;;4.46;82.60;99689.77;1619573;88;21043;-77
2021/10/14 05:28:40;;;;;;;27.65;19.23;;;;;;;4.53;82.69;99683.49;1609032;88;21094;-77
2021/10/14 05:31:12;;;;;;;30.08;18.60;;;;;;;4.57;82.79;99695.48;1603992;88;21574;-77
2021/10/14 05:33:38;;;;;;;27.40;19.10;;;;;;;4.66;82.91;99700.41;1607877;88;21031;-77
2021/10/14 05:36:07;;;;;;;29.65;18.32;;;;;;;4.72;82.91;99704.75;1593622;88;21154;-77
2021/10/14 05:38:40;;;;;;;26.23;16.48;;;;;;;4.79;82.82;99709.92;1599320;88;21071;-77
2021/10/14 05:41:14;;;;;;;28.83;15.85;;;;;;;4.85;82.62;99704.17;1607654;88;21164;-75
2021/10/14 05:43:57;;;;;;;29.75;18.12;;;;;;;4.88;82.43;99716.44;1605320;87;21067;-76
2021/10/14 05:46:30;;;;;;;27.90;18.00;;;;;;;4.85;82.34;99713.73;1598987;87;21043;-75
2021/10/14 05:48:58;;;;;;;29.65;16.62;;;;;;;4.85;82.40;99715.09;1609108;88;21570;-74
2021/10/14 05:51:27;;;;;;;27.70;17.80;;;;;;;4.89;82.79;99720.83;1607573;88;21114;-78
2021/10/14 05:53:54;;;;;;;26.37;16.75;;;;;;;4.97;82.82;99723.52;1627501;87;21047;-77
2021/10/14 05:59:12;;;;;;;32.30;19.37;;;;;;;5.10;82.99;99724.88;1610928;88;21003;-75
2021/10/14 06:01:42;;;;;;;33.67;21.50;;;;;;;5.09;82.69;99726.77;1608246;88;21162;-74
2021/10/14 06:04:15;;;;;;;35.95;20.70;;;;;;;5.13;82.68;99729.77;1610103;88;21424;-76
2021/10/14 06:06:44;;;;;;;33.08;19.92;;;;;;;5.17;82.62;99724.57;1627971;87;21111;-77
2021/10/14 06:09:12;;;;;;;31.20;18.75;;;;;;;5.18;82.52;99727.02;1628364;85;20999;-76
2021/10/14 06:11:43;;;;;;;40.95;22.07;;;;;;;5.21;82.50;99737.39;1627802;87;21019;-76
2021/10/14 06:14:15;;;;;;;35.55;20.27;;;;;;;5.27;82.68;99736.80;1625852;87;21189;-76
2021/10/14 06:16:52;;;;;;;38.70;22.65;;;;;;;5.34;82.67;99740.06;1590492;87;21030;-75
2021/10/14 06:19:22;;;;;;;34.33;21.75;;;;;;;5.38;82.59;99744.96;1627710;87;21110;-76
2021/10/14 06:21:49;;;;;;;36.48;22.00;;;;;;;5.43;82.50;99744.41;1607736;88;21031;-76
2021/10/14 06:24:21;;;;;;;33.92;21.42;;;;;;;5.46;82.42;99747.11;1608952;88;21539;-76
2021/10/14 06:26:49;;;;;;;38.15;23.57;;;;;;;5.50;82.40;99756.94;1628372;87;21159;-76
2021/10/14 06:29:22;;;;;;;36.85;22.37;;;;;;;5.55;82.37;99760.48;1605362;88;21046;-77
2021/10/14 06:32:03;;;;;;;40.57;23.73;;;;;;;5.63;82.21;99765.11;1607834;88;21023;-77
2021/10/14 06:34:31;;;;;;;36.33;23.32;;;;;;;5.69;82.18;99762.06;1629387;87;20999;-77
2021/10/14 06:37:04;;;;;;;38.30;23.15;;;;;;;5.72;81.87;99766.97;1606844;88;21042;-76
2021/10/14 06:39:32;;;;;;;37.50;21.15;;;;;;;5.75;81.79;99769.67;1627142;85;21555;-76
2021/10/14 06:42:05;;;;;;;34.08;20.32;;;;;;;5.75;81.52;99771.61;1609482;88;21060;-78
2021/10/14 06:44:37;;;;;;;31.50;20.92;;;;;;;5.73;81.52;99775.99;1602571;87;21110;-74
2021/10/14 06:47:05;;;;;;;31.68;21.65;;;;;;;5.75;81.61;99775.14;1608286;87;21043;-78
2021/10/14 06:49:36;;;;;;;31.75;20.05;;;;;;;5.79;81.38;99771.30;1604199;88;21084;-77
2021/10/14 06:52:05;;;;;;;35.13;21.55;;;;;;;5.79;81.34;99772.66;1584647;88;21677;-78
2021/10/14 06:54:38;;;;;;;31.33;20.37;;;;;;;5.85;81.45;99777.03;1602579;88;21136;-77
2021/10/14 06:57:10;;;;;;;34.95;21.87;;;;;;;5.91;81.40;99778.63;1602784;88;21886;-79
2021/10/14 06:59:48;;;;;;;44.45;21.30;;;;;;;5.99;81.37;99781.88;1606989;88;20996;-76
2021/10/14 07:02:30;;;;;;;27.22;19.25;;;;;;;6.04;81.00;99782.64;1557650;91;21059;-76
2021/10/14 07:05:02;;;;;;;30.75;19.32;;;;;;;6.05;80.77;99784.86;1561157;88;21754;-77
2021/10/14 07:07:30;;;;;;;32.05;19.55;;;;;;;6.03;80.69;99782.92;1603813;88;21028;-77
2021/10/14 07:09:56;;;;;;;30.88;19.65;;;;;;;6.06;80.73;99787.31;1586186;88;21643;-77
2021/10/14 07:12:33;;;;;;;29.80;19.37;;;;;;;6.09;80.60;99791.39;1606236;88;21052;-76
2021/10/14 07:14:59;;;;;;;29.85;18.37;;;;;;;6.05;80.28;99792.53;1606821;88;21052;-77
2021/10/14 07:17:31;;;;;;;26.15;16.97;;;;;;;6.02;80.34;99793.04;1606374;88;21107;-77
2021/10/14 07:20:21;;;;;;;30.77;17.57;;;;;;;6.06;80.61;99800.99;1605112;88;21076;-79
2021/10/14 07:23:12;;;;;;;24.85;16.52;;;;;;;6.23;81.18;99799.79;1606457;87;21107;-78
2021/10/14 07:25:44;;;;;;;25.60;15.28;;;;;;;6.43;81.04;99795.29;1592983;88;21051;-76
2021/10/14 07:28:14;;;;;;;27.77;18.15;;;;;;;6.62;80.69;99791.86;1604099;88;21032;-75
2021/10/14 07:30:42;;;;;;;26.40;17.30;;;;;;;6.76;80.31;99794.19;1603431;87;22033;-75
2021/10/14 07:33:19;;;;;;;30.62;16.90;;;;;;;6.88;80.15;99792.43;1606324;87;21053;-76
2021/10/14 07:35:49;;;;;;;25.23;17.42;;;;;;;7.00;79.59;99797.52;1586870;88;21083;-76
2021/10/14 07:38:20;;;;;;;29.15;16.90;;;;;;;7.05;79.15;99798.02;1609758;88;21087;-76
2021/10/14 07:40:52;;;;;;;25.75;14.95;;;;;;;7.15;79.07;99799.83;1606518;88;21019;-76
2021/10/14 07:43:19;;;;;;;28.92;17.30;;;;;;;7.22;78.33;99795.37;1607895;88;21124;-75
2021/10/14 07:45:47;;;;;;;29.92;15.70;;;;;;;7.32;78.74;99799.95;1571217;90;21176;-77
2021/10/14 07:48:20;;;;;;;26.42;16.60;;;;;;;7.48;78.61;99801.95;1613469;88;20956;-76
2021/10/14 07:51:14;;;;;;;26.70;16.45;;;;;;;7.66;78.43;99804.47;1590696;89;21077;-75
2021/10/14 07:53:42;;;;;;;31.48;16.57;;;;;;;7.84;77.88;99807.00;1643532;85;20972;-75
2021/10/14 07:56:12;;;;;;;30.97;17.20;;;;;;;8.02;77.57;99808.13;1640081;86;21151;-76
2021/10/14 07:58:45;;;;;;;28.35;15.93;;;;;;;8.18;77.47;99816.14;1642994;86;21047;-75
2021/10/14 08:01:11;;;;;;;32.33;17.70;;;;;;;8.26;76.51;99816.02;1616040;86;21019;-75
2021/10/14 08:03:42;;;;;;;21.27;14.33;;;;;;;8.33;76.12;99817.02;1643257;86;21000;-75
2021/10/14 08:06:15;;;;;;;25.12;15.05;;;;;;;8.38;75.60;99815.56;1642833;86;21082;-74
2021/10/14 08:08:53;;;;;;;33.92;15.98;;;;;;;8.41;75.15;99820.45;1644761;86;21066;-75
2021/10/14 08:11:23;;;;;;;28.83;17.77;;;;;;;8.38;74.63;99818.31;1606497;88;21086;-76
2021/10/14 08:13:49;;;;;;;27.02;16.37;;;;;;;8.38;74.39;99823.80;1633892;85;21504;-79
2021/10/14 08:16:34;;;;;;;27.13;15.78;;;;;;;8.39;74.26;99821.34;1643805;86;21496;-75
2021/10/14 08:19:05;;;;;;;24.82;15.10;;;;;;;8.45;74.21;99828.38;1640981;86;21036;-77
2021/10/14 08:21:38;;;;;;;28.38;15.95;;;;;;;8.56;73.98;99833.74;1617721;86;21048;-75
2021/10/14 08:24:16;;;;;;;34.75;15.60;;;;;;;8.62;73.81;99833.91;1645817;86;21099;-75
2021/10/14 08:26:51;;;;;;;23.60;14.87;;;;;;;8.72;73.74;99825.50;1640407;85;21611;-75
2021/10/14 08:29:21;;;;;;;27.15;15.20;;;;;;;8.84;73.64;99826.41;1643560;86;21631;-77
2021/10/14 08:31:53;;;;;;;20.15;13.50;;;;;;;8.97;73.11;99828.92;1629564;86;21067;-77
2021/10/14 08:34:30;;;;;;;19.57;12.65;;;;;;;9.11;72.35;99826.80;1638521;86;21877;-76
2021/10/14 08:37:11;;;;;;;21.85;12.25;;;;;;;9.11;71.32;99828.17;1637508;86;21068;-76
2021/10/14 08:39:41;;;;;;;20.57;12.30;;;;;;;9.16;71.21;99834.92;1643194;85;21000;-76
2021/10/14 08:42:19;;;;;;;18.95;12.37;;;;;;;9.28;70.54;99832.26;1644338;86;21044;-75
2021/10/14 08:44:46;;;;;;;21.20;13.87;;;;;;;9.34;70.72;99838.73;1623208;86;21587;-76
2021/10/14 08:47:21;;;;;;;22.95;14.35;;;;;;;9.46;70.23;99840.98;1616095;86;21063;-77
2021/10/14 08:49:58;;;;;;;27.82;14.80;;;;;;;9.56;69.86;99839.14;1607130;88;21165;-77
2021/10/14 08:52:27;;;;;;;28.60;15.28;;;;;;;9.69;69.98;99837.53;1615332;87;21546;-74
2021/10/14 08:55:04;;;;;;;25.10;16.17;;;;;;;9.89;69.54;99845.09;1614256;88;21069;-75
2021/10/14 08:57:42;;;;;;;;;;;;;;;10.04;69.15;99840.64;1618031;86;21003;-74
2021/10/14 09:00:15;;;;;;;28.80;14.70;;;;;;;10.16;68.04;99842.86;1605322;88;20134;-76
2021/10/14 09:02:46;;;;;;;22.07;13.15;;;;;;;10.20;67.96;99847.20;1592027;88;21072;-76
2021/10/14 09:05:16;;;;;;;27.40;15.48;;;;;;;10.32;68.05;99845.28;1608302;88;20993;-74
2021/10/14 09:07:51;;;;;;;22.37;15.85;;;;;;;10.44;67.73;99839.22;1608448;88;21100;-77
2021/10/14 09:10:24;;;;;;;24.85;16.00;;;;;;;10.56;67.58;99845.00;1616933;88;21044;-77
2021/10/14 09:12:56;;;;;;;27.80;17.77;;;;;;;10.65;67.21;99842.88;1608029;88;21556;-75
2021/10/14 09:15:40;;;;;;;22.60;15.13;;;;;;;10.71;66.51;99845.78;1590808;88;21062;-76
2021/10/14 09:18:18;;;;;;;22.30;15.83;;;;;;;10.75;66.05;99849.52;1608377;86;21015;-74
2021/10/14 09:20:53;;;;;;;27.62;16.60;;;;;;;10.83;65.71;99852.11;1623683;86;21059;-77
2021/10/14 09:23:27;;;;;;;32.50;15.85;;;;;;;10.85;65.29;99851.78;1617373;87;21042;-75
2021/10/14 09:25:56;;;;;;;23.55;15.05;;;;;;;10.85;65.29;99856.72;1569249;88;21068;-75
2021/10/14 09:28:46;;;;;;;24.05;13.90;;;;;;;10.88;64.92;99861.63;1575878;88;21535;-76
2021/10/14 09:31:15;;;;;;;23.25;13.53;;;;;;;10.87;64.93;99861.36;1623177;86;21046;-75
2021/10/14 09:33:48;;;;;;;21.80;13.60;;;;;;;10.89;64.99;99859.11;1612018;88;21027;-76
2021/10/14 09:36:22;;;;;;;26.42;14.55;;;;;;;10.81;64.52;99857.94;1610425;88;21642;-75
2021/10/14 09:39:03;;;;;;;26.52;13.95;;;;;;;10.80;64.26;99855.47;1619920;88;21118;-76
2021/10/14 09:41:38;;;;;;;25.25;14.60;;;;;;;10.86;64.42;99861.67;1610382;88;21083;-76
2021/10/14 09:44:13;;;;;;;23.05;14.53;;;;;;;10.95;63.96;99857.05;1606433;87;21027;-75
2021/10/14 09:46:53;;;;;;;24.80;14.60;;;;;;;11.04;64.39;99859.28;1607352;88;21054;-75
2021/10/14 09:49:31;;;;;;;20.37;13.35;;;;;;;11.19;64.20;99858.06;1580651;89;21082;-76
2021/10/14 09:52:03;;;;;;;22.22;12.70;;;;;;;11.31;63.68;99867.72;1606789;88;21056;-74
2021/10/14 09:54:32;;;;;;;19.82;12.68;;;;;;;11.42;63.07;99865.48;1574890;90;21050;-75
2021/10/14 09:57:06;;;;;;;22.07;13.35;;;;;;;11.49;63.12;99860.33;1606560;88;21538;-74
2021/10/14 09:59:39;;;;;;;20.55;13.25;;;;;;;11.61;62.69;99869.95;1591384;89;21108;-72
2021/10/14 10:05:36;;;;;;;28.12;13.98;;;;;;;11.67;61.37;99873.63;1623941;86;21047;-77
2021/10/14 10:08:39;;;;;;;22.37;13.90;;;;;;;11.57;60.70;99867.01;1588090;88;21028;-76
2021/10/14 10:11:14;;;;;;;20.45;12.53;;;;;;;11.57;61.33;99862.87;1609187;89;21585;-78
2021/10/14 10:13:52;;;;;;;21.15;13.38;;;;;;;11.66;61.44;99861.53;1609380;89;21027;-74
2021/10/14 10:16:26;;;;;;;22.00;13.65;;;;;;;11.67;61.20;99877.77;1608946;89;21054;-77
2021/10/14 10:18:59;;;;;;;24.75;14.45;;;;;;;11.80;61.15;99877.39;1608002;89;21908;-75
2021/10/14 10:21:39;;;;;;;23.07;13.90;;;;;;;11.96;61.25;99879.72;1611644;89;21078;-75
2021/10/14 10:24:30;;;;;;;35.17;13.40;;;;;;;12.16;60.88;99880.30;1606072;89;21125;-74
2021/10/14 10:29:48;;;;;;;18.42;12.93;;;;;;;12.41;59.67;99882.03;1610002;89;21141;-75
2021/10/14 10:32:33;;;;;;;26.80;13.27;;;;;;;12.37;58.87;99879.09;1608722;89;21118;-76
2021/10/14 10:35:11;;;;;;;20.75;12.50;;;;;;;12.25;58.51;99887.20;1583629;89;21611;-77
2021/10/14 10:37:48;;;;;;;21.80;12.95;;;;;;;12.15;59.07;99888.33;1598863;89;21065;-76
2021/10/14 10:40:29;;;;;;;18.60;12.93;;;;;;;12.13;59.15;99892.80;1586628;89;21045;-74
2021/10/14 10:43:02;;;;;;;23.77;12.90;;;;;;;12.04;59.15;99892.73;1604976;88;21004;-75
2021/10/14 10:45:43;;;;;;;19.37;11.55;;;;;;;11.86;58.87;99888.30;1587877;88;21176;-76
2021/10/14 10:48:12;;;;;;;23.47;12.35;;;;;;;11.76;58.69;99893.55;1604770;88;21028;-77
2021/10/14 10:50:46;;;;;;;17.98;11.33;;;;;;;11.64;58.55;99888.63;1608586;88;21051;-77
2021/10/14 10:53:37;;;;;;;19.27;11.88;;;;;;;11.51;58.48;99896.70;1602530;88;21096;-76
2021/10/14 10:56:41;;;;;;;16.42;11.35;;;;;;;11.36;58.85;99891.59;1587200;88;21079;-76
2021/10/14 10:59:25;;;;;;;17.80;10.72;;;;;;;11.26;59.31;99899.58;1601964;89;21032;-76
2021/10/14 11:02:02;;;;;;;18.73;11.03;;;;;;;11.19;58.97;99895.30;1594826;87;21068;-77
2021/10/14 11:04:34;;;;;;;20.62;11.78;;;;;;;11.12;59.26;99899.09;1603860;88;21086;-74
2021/10/14 11:07:23;;;;;;;19.05;12.15;;;;;;;11.11;59.26;99902.13;1586202;88;21028;-75
2021/10/14 11:10:12;;;;;;;16.57;10.10;;;;;;;11.06;59.09;99903.09;1601843;88;21568;-77
2021/10/14 11:13:12;;;;;;;15.10;7.90;;;;;;;11.05;59.35;99902.26;1606636;88;20981;-73
2021/10/14 11:15:57;;;;;;;12.15;7.17;;;;;;;11.16;58.78;99896.48;1607426;88;21032;-76
2021/10/14 11:18:35;;;;;;;17.82;6.75;;;;;;;11.26;58.40;99903.72;1602718;88;21083;-75
2021/10/14 11:21:12;;;;;;;12.40;6.97;;;;;;;11.31;57.72;99909.89;1585775;88;21028;-78
2021/10/14 11:23:51;;;;;;;9.73;7.58;;;;;;;11.26;56.55;99909.23;1606402;87;21004;-76
2021/10/14 11:26:35;;;;;;;12.18;7.37;;;;;;;11.05;56.34;99916.05;1603011;88;21048;-73
2021/10/14 11:29:21;;;;;;;14.93;8.10;;;;;;;10.92;56.99;99914.99;1601044;88;21027;-74
2021/10/14 11:32:09;;;;;;;8.78;6.95;;;;;;;10.88;57.12;99917.31;1605398;88;21052;-73
2021/10/14 11:34:41;;;;;;;12.33;7.70;;;;;;;10.80;57.68;99918.86;1587124;88;21115;-74
2021/10/14 11:37:15;;;;;;;12.60;7.70;;;;;;;10.74;57.80;99932.52;1584509;88;21054;-76
2021/10/14 11:39:48;;;;;;;12.55;7.37;;;;;;;10.66;57.24;99927.98;1604652;88;21040;-76
2021/10/14 11:42:28;;;;;;;20.23;9.55;;;;;;;10.57;57.62;99929.87;1606196;88;21619;-76
2021/10/14 11:45:04;;;;;;;14.15;7.83;;;;;;;10.54;58.17;99926.36;1584793;88;21052;-76
2021/10/14 11:47:54;;;;;;;12.25;7.50;;;;;;;10.52;57.46;99929.42;1603618;88;21548;-74
2021/10/14 11:50:27;;;;;;;12.53;7.30;;;;;;;10.47;57.28;99937.22;1608307;87;21008;-76
2021/10/14 11:53:06;;;;;;;11.00;6.85;;;;;;;10.48;57.39;99938.05;1606295;88;21097;-74
2021/10/14 11:55:40;;;;;;;13.05;6.60;;;;;;;10.49;57.01;99941.63;1594099;88;21024;-77
2021/10/14 11:58:20;;;;;;;9.30;6.47;;;;;;;10.47;57.21;99941.35;1600739;88;21061;-76
2021/10/14 12:00:49;;;;;;;14.20;8.65;;;;;;;10.47;57.29;99941.94;1591187;88;21063;-75
2021/10/14 12:03:22;;;;;;;15.30;7.83;;;;;;;10.43;56.83;99947.21;1583851;88;21763;-78